Terminal Aerodrome Forecast
Issued by NWS

Home | Current Version | Previous Version | Text Only | Print | Product List | Glossary Off
Versions: 1 2 3 4 5 6 7 8 9 10 11 12 13 14 15 16 17 18 19

510
FTUS43 KPAH 071720
TAFCGI
TAF
KCGI 071720Z 0718/0818 02008KT P6SM SCT050 BKN100
     FM072200 36008KT P6SM SCT025 OVC050
     FM080500 34010KT P6SM OVC025
     FM081100 32010KT P6SM SCT030=

USA.gov is the U.S. government's official web portal to all federal, state and local government web resources and services.